sensor_id;sensor_type;location;lat;lon;timestamp;P1;durP1;ratioP1;P2;durP2;ratioP2
49101;SDS011;34913;47.520;19.186;2023-11-19T00:00:15;18.50;;;10.15;;
49101;SDS011;34913;47.520;19.186;2023-11-19T00:02:41;18.85;;;10.70;;
49101;SDS011;34913;47.520;19.186;2023-11-19T00:05:07;18.13;;;10.48;;
49101;SDS011;34913;47.520;19.186;2023-11-19T00:07:36;20.23;;;10.60;;
49101;SDS011;34913;47.520;19.186;2023-11-19T00:10:07;20.52;;;10.60;;
49101;SDS011;34913;47.520;19.186;2023-11-19T00:12:40;18.70;;;10.55;;
49101;SDS011;34913;47.520;19.186;2023-11-19T00:15:09;19.30;;;11.00;;
49101;SDS011;34913;47.520;19.186;2023-11-19T00:17:39;17.55;;;10.63;;
49101;SDS011;34913;47.520;19.186;2023-11-19T00:20:13;20.77;;;10.85;;
49101;SDS011;34913;47.520;19.186;2023-11-19T00:22:39;18.00;;;10.45;;
49101;SDS011;34913;47.520;19.186;2023-11-19T00:25:05;17.25;;;10.25;;
49101;SDS011;34913;47.520;19.186;2023-11-19T00:27:31;19.10;;;10.40;;
49101;SDS011;34913;47.520;19.186;2023-11-19T00:29:56;20.02;;;10.82;;
49101;SDS011;34913;47.520;19.186;2023-11-19T00:32:22;19.55;;;10.30;;
49101;SDS011;34913;47.520;19.186;2023-11-19T00:34:48;21.00;;;10.23;;
49101;SDS011;34913;47.520;19.186;2023-11-19T00:37:14;18.58;;;10.23;;
49101;SDS011;34913;47.520;19.186;2023-11-19T00:39:40;19.35;;;10.70;;
49101;SDS011;34913;47.520;19.186;2023-11-19T00:42:06;17.73;;;10.15;;
49101;SDS011;34913;47.520;19.186;2023-11-19T00:44:32;22.15;;;11.50;;
49101;SDS011;34913;47.520;19.186;2023-11-19T00:46:57;20.95;;;11.35;;
49101;SDS011;34913;47.520;19.186;2023-11-19T00:49:24;21.23;;;11.85;;
49101;SDS011;34913;47.520;19.186;2023-11-19T00:51:50;20.90;;;11.38;;
49101;SDS011;34913;47.520;19.186;2023-11-19T00:54:15;19.35;;;11.45;;
49101;SDS011;34913;47.520;19.186;2023-11-19T00:56:41;18.50;;;10.45;;
49101;SDS011;34913;47.520;19.186;2023-11-19T00:59:06;17.33;;;9.88;;
49101;SDS011;34913;47.520;19.186;2023-11-19T01:01:32;19.85;;;10.57;;
49101;SDS011;34913;47.520;19.186;2023-11-19T01:03:58;16.70;;;9.63;;
49101;SDS011;34913;47.520;19.186;2023-11-19T01:06:30;14.52;;;9.30;;
49101;SDS011;34913;47.520;19.186;2023-11-19T01:08:56;16.00;;;9.35;;
49101;SDS011;34913;47.520;19.186;2023-11-19T01:11:22;15.68;;;8.95;;
49101;SDS011;34913;47.520;19.186;2023-11-19T01:13:49;16.40;;;9.05;;
49101;SDS011;34913;47.520;19.186;2023-11-19T01:16:15;14.70;;;8.90;;
49101;SDS011;34913;47.520;19.186;2023-11-19T01:18:40;17.05;;;9.07;;
49101;SDS011;34913;47.520;19.186;2023-11-19T01:21:06;17.92;;;9.50;;
49101;SDS011;34913;47.520;19.186;2023-11-19T01:23:31;16.02;;;9.23;;
49101;SDS011;34913;47.520;19.186;2023-11-19T01:25:57;14.23;;;8.68;;
49101;SDS011;34913;47.520;19.186;2023-11-19T01:28:23;15.75;;;9.38;;
49101;SDS011;34913;47.520;19.186;2023-11-19T01:30:50;14.70;;;9.13;;
49101;SDS011;34913;47.520;19.186;2023-11-19T01:33:16;17.45;;;10.25;;
49101;SDS011;34913;47.520;19.186;2023-11-19T01:35:42;16.67;;;9.75;;
49101;SDS011;34913;47.520;19.186;2023-11-19T01:38:07;16.25;;;9.68;;
49101;SDS011;34913;47.520;19.186;2023-11-19T01:40:36;17.00;;;9.98;;
49101;SDS011;34913;47.520;19.186;2023-11-19T01:43:02;15.80;;;9.57;;
49101;SDS011;34913;47.520;19.186;2023-11-19T01:45:28;17.65;;;9.75;;
49101;SDS011;34913;47.520;19.186;2023-11-19T01:47:56;20.30;;;9.75;;
49101;SDS011;34913;47.520;19.186;2023-11-19T01:50:22;16.00;;;9.45;;
49101;SDS011;34913;47.520;19.186;2023-11-19T01:52:50;16.60;;;9.82;;
49101;SDS011;34913;47.520;19.186;2023-11-19T01:55:17;17.63;;;10.07;;
49101;SDS011;34913;47.520;19.186;2023-11-19T01:57:44;16.38;;;9.73;;
49101;SDS011;34913;47.520;19.186;2023-11-19T02:00:11;17.98;;;9.52;;
49101;SDS011;34913;47.520;19.186;2023-11-19T02:02:38;18.38;;;10.13;;
49101;SDS011;34913;47.520;19.186;2023-11-19T02:05:05;16.23;;;9.52;;
49101;SDS011;34913;47.520;19.186;2023-11-19T02:07:31;16.17;;;10.02;;
49101;SDS011;34913;47.520;19.186;2023-11-19T02:09:57;16.70;;;9.48;;
49101;SDS011;34913;47.520;19.186;2023-11-19T02:12:25;17.17;;;9.52;;
49101;SDS011;34913;47.520;19.186;2023-11-19T02:14:53;16.00;;;9.27;;
49101;SDS011;34913;47.520;19.186;2023-11-19T02:17:29;18.15;;;9.82;;
49101;SDS011;34913;47.520;19.186;2023-11-19T02:19:59;18.17;;;10.10;;
49101;SDS011;34913;47.520;19.186;2023-11-19T02:22:25;18.17;;;10.38;;
49101;SDS011;34913;47.520;19.186;2023-11-19T02:24:51;16.08;;;9.85;;
49101;SDS011;34913;47.520;19.186;2023-11-19T02:30:03;16.63;;;9.80;;
49101;SDS011;34913;47.520;19.186;2023-11-19T02:32:33;16.77;;;10.50;;
49101;SDS011;34913;47.520;19.186;2023-11-19T02:34:59;16.65;;;9.60;;
49101;SDS011;34913;47.520;19.186;2023-11-19T02:37:24;16.70;;;9.18;;
49101;SDS011;34913;47.520;19.186;2023-11-19T02:39:50;16.90;;;9.70;;
49101;SDS011;34913;47.520;19.186;2023-11-19T02:42:16;19.13;;;10.10;;
49101;SDS011;34913;47.520;19.186;2023-11-19T02:44:44;15.65;;;9.23;;
49101;SDS011;34913;47.520;19.186;2023-11-19T02:47:11;18.25;;;9.05;;
49101;SDS011;34913;47.520;19.186;2023-11-19T02:49:36;15.40;;;9.50;;
49101;SDS011;34913;47.520;19.186;2023-11-19T02:52:02;16.42;;;9.32;;
49101;SDS011;34913;47.520;19.186;2023-11-19T02:54:30;16.77;;;9.68;;
49101;SDS011;34913;47.520;19.186;2023-11-19T02:56:59;16.42;;;8.95;;
49101;SDS011;34913;47.520;19.186;2023-11-19T02:59:27;17.80;;;9.38;;
49101;SDS011;34913;47.520;19.186;2023-11-19T03:01:53;16.50;;;9.45;;
49101;SDS011;34913;47.520;19.186;2023-11-19T03:04:19;16.75;;;9.52;;
49101;SDS011;34913;47.520;19.186;2023-11-19T03:06:48;17.55;;;9.07;;
49101;SDS011;34913;47.520;19.186;2023-11-19T03:09:14;17.30;;;9.23;;
49101;SDS011;34913;47.520;19.186;2023-11-19T03:11:39;15.68;;;9.23;;
49101;SDS011;34913;47.520;19.186;2023-11-19T03:14:04;14.95;;;9.25;;
49101;SDS011;34913;47.520;19.186;2023-11-19T03:16:30;14.85;;;9.38;;
49101;SDS011;34913;47.520;19.186;2023-11-19T03:18:55;19.55;;;9.30;;
49101;SDS011;34913;47.520;19.186;2023-11-19T03:21:30;17.63;;;9.45;;
49101;SDS011;34913;47.520;19.186;2023-11-19T03:23:57;17.38;;;9.55;;
49101;SDS011;34913;47.520;19.186;2023-11-19T03:26:25;16.75;;;9.38;;
49101;SDS011;34913;47.520;19.186;2023-11-19T03:28:54;16.50;;;9.32;;
49101;SDS011;34913;47.520;19.186;2023-11-19T03:31:22;15.45;;;9.57;;
49101;SDS011;34913;47.520;19.186;2023-11-19T03:33:47;14.77;;;9.23;;
49101;SDS011;34913;47.520;19.186;2023-11-19T03:36:13;16.50;;;9.63;;
49101;SDS011;34913;47.520;19.186;2023-11-19T03:38:38;16.85;;;9.02;;
49101;SDS011;34913;47.520;19.186;2023-11-19T03:41:13;18.30;;;9.85;;
49101;SDS011;34913;47.520;19.186;2023-11-19T03:43:39;16.60;;;9.25;;
49101;SDS011;34913;47.520;19.186;2023-11-19T03:46:18;16.17;;;9.50;;
49101;SDS011;34913;47.520;19.186;2023-11-19T03:48:46;15.43;;;9.38;;
49101;SDS011;34913;47.520;19.186;2023-11-19T03:51:15;17.45;;;9.85;;
49101;SDS011;34913;47.520;19.186;2023-11-19T03:53:44;16.60;;;9.52;;
49101;SDS011;34913;47.520;19.186;2023-11-19T03:56:10;15.85;;;9.52;;
49101;SDS011;34913;47.520;19.186;2023-11-19T03:58:37;16.00;;;9.18;;
49101;SDS011;34913;47.520;19.186;2023-11-19T04:01:03;16.33;;;9.52;;
49101;SDS011;34913;47.520;19.186;2023-11-19T04:03:47;16.83;;;9.55;;
49101;SDS011;34913;47.520;19.186;2023-11-19T04:06:12;18.42;;;10.52;;
49101;SDS011;34913;47.520;19.186;2023-11-19T04:08:38;15.55;;;9.52;;
49101;SDS011;34913;47.520;19.186;2023-11-19T04:11:03;16.83;;;9.65;;
49101;SDS011;34913;47.520;19.186;2023-11-19T04:13:29;16.23;;;9.45;;
49101;SDS011;34913;47.520;19.186;2023-11-19T04:15:55;17.77;;;10.70;;
49101;SDS011;34913;47.520;19.186;2023-11-19T04:18:20;15.77;;;9.55;;
49101;SDS011;34913;47.520;19.186;2023-11-19T04:20:45;17.75;;;10.20;;
49101;SDS011;34913;47.520;19.186;2023-11-19T04:23:11;16.60;;;9.95;;
49101;SDS011;34913;47.520;19.186;2023-11-19T04:25:36;16.38;;;9.45;;
49101;SDS011;34913;47.520;19.186;2023-11-19T04:28:02;17.55;;;9.70;;
49101;SDS011;34913;47.520;19.186;2023-11-19T04:30:28;18.48;;;10.55;;
49101;SDS011;34913;47.520;19.186;2023-11-19T04:32:53;17.55;;;10.00;;
49101;SDS011;34913;47.520;19.186;2023-11-19T04:35:19;17.08;;;10.38;;
49101;SDS011;34913;47.520;19.186;2023-11-19T04:37:44;19.85;;;10.23;;
49101;SDS011;34913;47.520;19.186;2023-11-19T04:40:10;17.63;;;10.27;;
49101;SDS011;34913;47.520;19.186;2023-11-19T04:42:37;17.20;;;9.93;;
49101;SDS011;34913;47.520;19.186;2023-11-19T04:45:06;18.08;;;10.05;;
49101;SDS011;34913;47.520;19.186;2023-11-19T04:47:32;17.30;;;10.48;;
49101;SDS011;34913;47.520;19.186;2023-11-19T04:49:59;19.92;;;10.65;;
49101;SDS011;34913;47.520;19.186;2023-11-19T04:52:24;19.95;;;9.98;;
49101;SDS011;34913;47.520;19.186;2023-11-19T04:54:50;16.30;;;9.38;;
49101;SDS011;34913;47.520;19.186;2023-11-19T04:57:16;18.52;;;10.43;;
49101;SDS011;34913;47.520;19.186;2023-11-19T04:59:42;17.30;;;10.13;;
49101;SDS011;34913;47.520;19.186;2023-11-19T05:02:08;19.80;;;10.52;;
49101;SDS011;34913;47.520;19.186;2023-11-19T05:04:34;17.58;;;9.75;;
49101;SDS011;34913;47.520;19.186;2023-11-19T05:07:00;17.88;;;10.60;;
49101;SDS011;34913;47.520;19.186;2023-11-19T05:09:25;18.35;;;9.48;;
49101;SDS011;34913;47.520;19.186;2023-11-19T05:11:51;16.95;;;10.15;;
49101;SDS011;34913;47.520;19.186;2023-11-19T05:14:16;15.43;;;9.73;;
49101;SDS011;34913;47.520;19.186;2023-11-19T05:16:43;18.02;;;10.65;;
49101;SDS011;34913;47.520;19.186;2023-11-19T05:19:09;18.70;;;10.63;;
49101;SDS011;34913;47.520;19.186;2023-11-19T05:21:34;17.70;;;9.93;;
49101;SDS011;34913;47.520;19.186;2023-11-19T05:24:01;18.00;;;10.40;;
49101;SDS011;34913;47.520;19.186;2023-11-19T05:26:30;17.00;;;10.20;;
49101;SDS011;34913;47.520;19.186;2023-11-19T05:28:56;18.17;;;9.65;;
49101;SDS011;34913;47.520;19.186;2023-11-19T05:31:22;18.05;;;10.32;;
49101;SDS011;34913;47.520;19.186;2023-11-19T05:33:47;18.15;;;10.13;;
49101;SDS011;34913;47.520;19.186;2023-11-19T05:36:13;15.68;;;9.45;;
49101;SDS011;34913;47.520;19.186;2023-11-19T05:38:38;20.00;;;10.57;;
49101;SDS011;34913;47.520;19.186;2023-11-19T05:41:04;16.50;;;10.02;;
49101;SDS011;34913;47.520;19.186;2023-11-19T05:43:30;16.75;;;9.70;;
49101;SDS011;34913;47.520;19.186;2023-11-19T05:45:56;18.50;;;10.02;;
49101;SDS011;34913;47.520;19.186;2023-11-19T05:48:21;20.77;;;10.70;;
49101;SDS011;34913;47.520;19.186;2023-11-19T05:50:47;19.15;;;10.50;;
49101;SDS011;34913;47.520;19.186;2023-11-19T05:53:14;17.92;;;10.32;;
49101;SDS011;34913;47.520;19.186;2023-11-19T05:55:40;17.88;;;10.52;;
49101;SDS011;34913;47.520;19.186;2023-11-19T05:58:13;18.60;;;11.07;;
49101;SDS011;34913;47.520;19.186;2023-11-19T06:00:39;19.60;;;11.18;;
49101;SDS011;34913;47.520;19.186;2023-11-19T06:03:05;18.23;;;10.38;;
49101;SDS011;34913;47.520;19.186;2023-11-19T06:05:31;17.58;;;10.80;;
49101;SDS011;34913;47.520;19.186;2023-11-19T06:07:57;19.58;;;10.57;;
49101;SDS011;34913;47.520;19.186;2023-11-19T06:10:22;19.92;;;10.68;;
49101;SDS011;34913;47.520;19.186;2023-11-19T06:12:54;19.73;;;10.48;;
49101;SDS011;34913;47.520;19.186;2023-11-19T06:15:22;19.63;;;10.90;;
49101;SDS011;34913;47.520;19.186;2023-11-19T06:17:47;21.88;;;11.52;;
49101;SDS011;34913;47.520;19.186;2023-11-19T06:20:12;21.58;;;11.88;;
49101;SDS011;34913;47.520;19.186;2023-11-19T06:22:39;23.75;;;12.88;;
49101;SDS011;34913;47.520;19.186;2023-11-19T06:25:07;27.15;;;13.38;;
49101;SDS011;34913;47.520;19.186;2023-11-19T06:27:32;21.73;;;12.68;;
49101;SDS011;34913;47.520;19.186;2023-11-19T06:29:58;23.45;;;12.90;;
49101;SDS011;34913;47.520;19.186;2023-11-19T06:32:24;24.13;;;12.85;;
49101;SDS011;34913;47.520;19.186;2023-11-19T06:34:49;21.83;;;11.63;;
49101;SDS011;34913;47.520;19.186;2023-11-19T06:37:15;27.20;;;13.15;;
49101;SDS011;34913;47.520;19.186;2023-11-19T06:39:40;20.85;;;11.93;;
49101;SDS011;34913;47.520;19.186;2023-11-19T06:42:06;17.38;;;11.23;;
49101;SDS011;34913;47.520;19.186;2023-11-19T06:44:32;18.88;;;11.25;;
49101;SDS011;34913;47.520;19.186;2023-11-19T06:46:57;20.45;;;12.13;;
49101;SDS011;34913;47.520;19.186;2023-11-19T06:49:23;19.95;;;11.25;;
49101;SDS011;34913;47.520;19.186;2023-11-19T06:51:49;20.52;;;10.82;;
49101;SDS011;34913;47.520;19.186;2023-11-19T06:54:15;20.75;;;11.73;;
49101;SDS011;34913;47.520;19.186;2023-11-19T06:56:41;20.38;;;11.25;;
49101;SDS011;34913;47.520;19.186;2023-11-19T06:59:07;21.45;;;11.55;;
49101;SDS011;34913;47.520;19.186;2023-11-19T07:01:36;19.05;;;11.45;;
49101;SDS011;34913;47.520;19.186;2023-11-19T07:04:02;22.27;;;12.35;;
49101;SDS011;34913;47.520;19.186;2023-11-19T07:06:34;25.65;;;13.13;;
49101;SDS011;34913;47.520;19.186;2023-11-19T07:09:00;21.13;;;11.70;;
49101;SDS011;34913;47.520;19.186;2023-11-19T07:11:41;17.75;;;11.15;;
49101;SDS011;34913;47.520;19.186;2023-11-19T07:14:07;17.92;;;11.40;;
49101;SDS011;34913;47.520;19.186;2023-11-19T07:16:33;18.15;;;11.23;;
49101;SDS011;34913;47.520;19.186;2023-11-19T07:19:05;18.73;;;10.95;;
49101;SDS011;34913;47.520;19.186;2023-11-19T07:21:31;20.35;;;11.38;;
49101;SDS011;34913;47.520;19.186;2023-11-19T07:23:58;17.55;;;10.63;;
49101;SDS011;34913;47.520;19.186;2023-11-19T07:26:24;20.27;;;11.18;;
49101;SDS011;34913;47.520;19.186;2023-11-19T07:28:50;17.33;;;10.43;;
49101;SDS011;34913;47.520;19.186;2023-11-19T07:31:16;21.27;;;11.27;;
49101;SDS011;34913;47.520;19.186;2023-11-19T07:33:43;17.67;;;11.02;;
49101;SDS011;34913;47.520;19.186;2023-11-19T07:36:09;17.40;;;10.85;;
49101;SDS011;34913;47.520;19.186;2023-11-19T07:38:35;17.17;;;10.20;;
49101;SDS011;34913;47.520;19.186;2023-11-19T07:41:01;16.80;;;10.82;;
49101;SDS011;34913;47.520;19.186;2023-11-19T07:43:26;19.67;;;11.05;;
49101;SDS011;34913;47.520;19.186;2023-11-19T07:45:52;18.52;;;11.13;;
49101;SDS011;34913;47.520;19.186;2023-11-19T07:48:17;15.68;;;10.13;;
49101;SDS011;34913;47.520;19.186;2023-11-19T07:50:49;17.08;;;10.55;;
49101;SDS011;34913;47.520;19.186;2023-11-19T07:53:17;17.40;;;10.70;;
49101;SDS011;34913;47.520;19.186;2023-11-19T07:55:43;18.30;;;10.80;;
49101;SDS011;34913;47.520;19.186;2023-11-19T07:58:09;16.27;;;10.60;;
49101;SDS011;34913;47.520;19.186;2023-11-19T08:00:35;16.63;;;10.60;;
49101;SDS011;34913;47.520;19.186;2023-11-19T08:03:01;16.20;;;10.57;;
49101;SDS011;34913;47.520;19.186;2023-11-19T08:05:26;17.15;;;10.43;;
49101;SDS011;34913;47.520;19.186;2023-11-19T08:07:52;16.77;;;10.40;;
49101;SDS011;34913;47.520;19.186;2023-11-19T08:10:18;18.10;;;11.35;;
49101;SDS011;34913;47.520;19.186;2023-11-19T08:12:44;22.02;;;11.52;;
49101;SDS011;34913;47.520;19.186;2023-11-19T08:15:10;17.02;;;10.93;;
49101;SDS011;34913;47.520;19.186;2023-11-19T08:17:35;17.45;;;10.05;;
49101;SDS011;34913;47.520;19.186;2023-11-19T08:20:01;14.27;;;9.60;;
49101;SDS011;34913;47.520;19.186;2023-11-19T08:22:29;15.77;;;10.15;;
49101;SDS011;34913;47.520;19.186;2023-11-19T08:24:55;16.15;;;9.95;;
49101;SDS011;34913;47.520;19.186;2023-11-19T08:27:21;17.38;;;9.82;;
49101;SDS011;34913;47.520;19.186;2023-11-19T08:29:53;17.75;;;11.10;;
49101;SDS011;34913;47.520;19.186;2023-11-19T08:32:20;18.30;;;10.70;;
49101;SDS011;34913;47.520;19.186;2023-11-19T08:34:46;15.65;;;9.98;;
49101;SDS011;34913;47.520;19.186;2023-11-19T08:37:11;15.98;;;10.00;;
49101;SDS011;34913;47.520;19.186;2023-11-19T08:39:38;14.25;;;9.30;;
49101;SDS011;34913;47.520;19.186;2023-11-19T08:42:03;16.17;;;9.43;;
49101;SDS011;34913;47.520;19.186;2023-11-19T08:44:29;16.52;;;10.50;;
49101;SDS011;34913;47.520;19.186;2023-11-19T08:46:54;17.15;;;10.10;;
49101;SDS011;34913;47.520;19.186;2023-11-19T08:49:20;15.32;;;9.90;;
49101;SDS011;34913;47.520;19.186;2023-11-19T08:51:45;15.70;;;9.60;;
49101;SDS011;34913;47.520;19.186;2023-11-19T08:54:11;14.85;;;10.10;;
49101;SDS011;34913;47.520;19.186;2023-11-19T08:56:37;17.27;;;10.40;;
49101;SDS011;34913;47.520;19.186;2023-11-19T08:59:04;15.68;;;9.82;;
49101;SDS011;34913;47.520;19.186;2023-11-19T09:01:30;18.17;;;10.88;;
49101;SDS011;34913;47.520;19.186;2023-11-19T09:03:56;17.90;;;10.98;;
49101;SDS011;34913;47.520;19.186;2023-11-19T09:06:21;16.85;;;10.43;;
49101;SDS011;34913;47.520;19.186;2023-11-19T09:08:47;15.48;;;9.77;;
49101;SDS011;34913;47.520;19.186;2023-11-19T09:11:12;16.80;;;10.68;;
49101;SDS011;34913;47.520;19.186;2023-11-19T09:13:38;16.45;;;10.63;;
49101;SDS011;34913;47.520;19.186;2023-11-19T09:16:03;18.35;;;11.05;;
49101;SDS011;34913;47.520;19.186;2023-11-19T09:18:29;24.08;;;11.27;;
49101;SDS011;34913;47.520;19.186;2023-11-19T09:20:55;16.95;;;10.65;;
49101;SDS011;34913;47.520;19.186;2023-11-19T09:23:20;17.50;;;11.10;;
49101;SDS011;34913;47.520;19.186;2023-11-19T09:25:46;19.50;;;11.80;;
49101;SDS011;34913;47.520;19.186;2023-11-19T09:28:11;21.27;;;14.02;;
49101;SDS011;34913;47.520;19.186;2023-11-19T09:30:38;31.63;;;18.83;;
49101;SDS011;34913;47.520;19.186;2023-11-19T09:33:03;25.77;;;16.60;;
49101;SDS011;34913;47.520;19.186;2023-11-19T09:35:29;25.15;;;16.67;;
49101;SDS011;34913;47.520;19.186;2023-11-19T09:37:54;27.00;;;15.60;;
49101;SDS011;34913;47.520;19.186;2023-11-19T09:40:19;22.45;;;14.10;;
49101;SDS011;34913;47.520;19.186;2023-11-19T09:42:45;20.35;;;12.13;;
49101;SDS011;34913;47.520;19.186;2023-11-19T09:45:15;20.20;;;12.27;;
49101;SDS011;34913;47.520;19.186;2023-11-19T09:47:45;20.00;;;11.77;;
49101;SDS011;34913;47.520;19.186;2023-11-19T09:50:16;19.92;;;11.68;;
49101;SDS011;34913;47.520;19.186;2023-11-19T09:52:46;16.40;;;10.63;;
49101;SDS011;34913;47.520;19.186;2023-11-19T09:55:12;18.17;;;11.38;;
49101;SDS011;34913;47.520;19.186;2023-11-19T09:57:38;19.40;;;11.30;;
49101;SDS011;34913;47.520;19.186;2023-11-19T10:00:05;17.00;;;10.77;;
49101;SDS011;34913;47.520;19.186;2023-11-19T10:02:32;16.27;;;10.25;;
49101;SDS011;34913;47.520;19.186;2023-11-19T10:04:59;17.42;;;10.82;;
49101;SDS011;34913;47.520;19.186;2023-11-19T10:07:26;18.45;;;10.35;;
49101;SDS011;34913;47.520;19.186;2023-11-19T10:09:52;15.88;;;10.20;;
49101;SDS011;34913;47.520;19.186;2023-11-19T10:12:18;18.05;;;10.23;;
49101;SDS011;34913;47.520;19.186;2023-11-19T10:14:43;17.08;;;10.80;;
49101;SDS011;34913;47.520;19.186;2023-11-19T10:17:10;18.90;;;11.82;;
49101;SDS011;34913;47.520;19.186;2023-11-19T10:19:35;17.98;;;11.65;;
49101;SDS011;34913;47.520;19.186;2023-11-19T10:22:03;18.00;;;11.15;;
49101;SDS011;34913;47.520;19.186;2023-11-19T10:24:32;15.65;;;9.95;;
49101;SDS011;34913;47.520;19.186;2023-11-19T10:27:01;14.52;;;9.70;;
49101;SDS011;34913;47.520;19.186;2023-11-19T10:29:30;14.63;;;9.70;;
49101;SDS011;34913;47.520;19.186;2023-11-19T10:31:56;13.93;;;9.90;;
49101;SDS011;34913;47.520;19.186;2023-11-19T10:34:26;14.70;;;9.98;;
49101;SDS011;34913;47.520;19.186;2023-11-19T10:36:52;15.23;;;9.70;;
49101;SDS011;34913;47.520;19.186;2023-11-19T10:39:18;14.82;;;9.95;;
49101;SDS011;34913;47.520;19.186;2023-11-19T10:41:45;14.25;;;9.50;;
49101;SDS011;34913;47.520;19.186;2023-11-19T10:44:11;14.57;;;9.45;;
49101;SDS011;34913;47.520;19.186;2023-11-19T10:46:40;14.55;;;9.48;;
49101;SDS011;34913;47.520;19.186;2023-11-19T10:49:07;21.27;;;13.15;;
49101;SDS011;34913;47.520;19.186;2023-11-19T10:51:33;18.38;;;12.05;;
49101;SDS011;34913;47.520;19.186;2023-11-19T10:54:02;17.77;;;11.25;;
49101;SDS011;34913;47.520;19.186;2023-11-19T10:56:31;18.02;;;11.68;;
49101;SDS011;34913;47.520;19.186;2023-11-19T10:58:57;17.92;;;11.82;;
49101;SDS011;34913;47.520;19.186;2023-11-19T11:01:26;19.83;;;12.10;;
49101;SDS011;34913;47.520;19.186;2023-11-19T11:03:59;23.98;;;12.77;;
49101;SDS011;34913;47.520;19.186;2023-11-19T11:06:26;25.35;;;12.77;;
49101;SDS011;34913;47.520;19.186;2023-11-19T11:08:53;18.50;;;11.02;;
49101;SDS011;34913;47.520;19.186;2023-11-19T11:11:19;21.98;;;12.13;;
49101;SDS011;34913;47.520;19.186;2023-11-19T11:13:49;25.23;;;14.38;;
49101;SDS011;34913;47.520;19.186;2023-11-19T11:16:19;34.75;;;16.55;;
49101;SDS011;34913;47.520;19.186;2023-11-19T11:18:48;32.60;;;15.88;;
49101;SDS011;34913;47.520;19.186;2023-11-19T11:21:15;29.80;;;16.50;;
49101;SDS011;34913;47.520;19.186;2023-11-19T11:29:41;26.02;;;13.88;;
49101;SDS011;34913;47.520;19.186;2023-11-19T11:32:30;24.95;;;14.90;;
49101;SDS011;34913;47.520;19.186;2023-11-19T11:37:54;24.65;;;14.25;;
49101;SDS011;34913;47.520;19.186;2023-11-19T11:40:25;21.17;;;13.60;;
49101;SDS011;34913;47.520;19.186;2023-11-19T11:42:51;20.90;;;12.98;;
49101;SDS011;34913;47.520;19.186;2023-11-19T11:45:18;21.75;;;13.27;;
49101;SDS011;34913;47.520;19.186;2023-11-19T11:50:19;20.42;;;12.30;;
49101;SDS011;34913;47.520;19.186;2023-11-19T11:55:24;21.08;;;13.32;;
49101;SDS011;34913;47.520;19.186;2023-11-19T11:58:08;17.48;;;11.73;;
49101;SDS011;34913;47.520;19.186;2023-11-19T12:00:40;18.10;;;11.52;;
49101;SDS011;34913;47.520;19.186;2023-11-19T12:03:07;17.25;;;10.55;;
49101;SDS011;34913;47.520;19.186;2023-11-19T12:05:34;16.08;;;10.85;;
49101;SDS011;34913;47.520;19.186;2023-11-19T12:08:06;16.92;;;10.50;;
49101;SDS011;34913;47.520;19.186;2023-11-19T12:10:43;15.80;;;10.65;;
49101;SDS011;34913;47.520;19.186;2023-11-19T12:13:12;14.82;;;9.98;;
49101;SDS011;34913;47.520;19.186;2023-11-19T12:18:31;13.48;;;9.18;;
49101;SDS011;34913;47.520;19.186;2023-11-19T12:21:00;15.20;;;10.38;;
49101;SDS011;34913;47.520;19.186;2023-11-19T12:23:30;14.68;;;9.60;;
49101;SDS011;34913;47.520;19.186;2023-11-19T12:25:56;15.00;;;9.60;;
49101;SDS011;34913;47.520;19.186;2023-11-19T12:28:23;15.10;;;9.00;;
49101;SDS011;34913;47.520;19.186;2023-11-19T12:30:51;13.93;;;8.60;;
49101;SDS011;34913;47.520;19.186;2023-11-19T12:33:18;13.48;;;8.48;;
49101;SDS011;34913;47.520;19.186;2023-11-19T12:35:45;13.30;;;8.55;;
49101;SDS011;34913;47.520;19.186;2023-11-19T12:38:21;12.45;;;8.30;;
49101;SDS011;34913;47.520;19.186;2023-11-19T12:40:47;12.15;;;7.75;;
49101;SDS011;34913;47.520;19.186;2023-11-19T12:43:27;12.25;;;8.20;;
49101;SDS011;34913;47.520;19.186;2023-11-19T12:45:53;14.13;;;8.68;;
49101;SDS011;34913;47.520;19.186;2023-11-19T12:48:19;12.23;;;8.40;;
49101;SDS011;34913;47.520;19.186;2023-11-19T12:50:51;14.35;;;9.15;;
49101;SDS011;34913;47.520;19.186;2023-11-19T12:53:23;22.38;;;13.18;;
49101;SDS011;34913;47.520;19.186;2023-11-19T12:55:53;20.27;;;12.15;;
49101;SDS011;34913;47.520;19.186;2023-11-19T12:58:30;15.75;;;10.43;;
49101;SDS011;34913;47.520;19.186;2023-11-19T13:01:03;13.07;;;8.68;;
49101;SDS011;34913;47.520;19.186;2023-11-19T13:03:36;14.13;;;9.07;;
49101;SDS011;34913;47.520;19.186;2023-11-19T13:06:07;13.45;;;9.25;;
49101;SDS011;34913;47.520;19.186;2023-11-19T13:11:33;14.43;;;8.93;;
49101;SDS011;34913;47.520;19.186;2023-11-19T13:14:02;26.77;;;14.70;;
49101;SDS011;34913;47.520;19.186;2023-11-19T13:16:30;19.48;;;11.60;;
49101;SDS011;34913;47.520;19.186;2023-11-19T13:18:56;17.65;;;10.88;;
49101;SDS011;34913;47.520;19.186;2023-11-19T13:21:24;14.63;;;9.23;;
49101;SDS011;34913;47.520;19.186;2023-11-19T13:23:49;14.23;;;9.27;;
49101;SDS011;34913;47.520;19.186;2023-11-19T13:26:15;12.65;;;8.70;;
49101;SDS011;34913;47.520;19.186;2023-11-19T13:28:41;14.68;;;8.90;;
49101;SDS011;34913;47.520;19.186;2023-11-19T13:31:08;13.07;;;9.10;;
49101;SDS011;34913;47.520;19.186;2023-11-19T13:33:35;17.65;;;9.13;;
49101;SDS011;34913;47.520;19.186;2023-11-19T13:36:01;14.77;;;8.55;;
49101;SDS011;34913;47.520;19.186;2023-11-19T13:38:35;13.93;;;8.90;;
49101;SDS011;34913;47.520;19.186;2023-11-19T13:41:05;12.95;;;8.30;;
49101;SDS011;34913;47.520;19.186;2023-11-19T13:43:31;11.93;;;8.10;;
49101;SDS011;34913;47.520;19.186;2023-11-19T13:45:57;12.82;;;8.13;;
49101;SDS011;34913;47.520;19.186;2023-11-19T13:48:23;14.55;;;8.82;;
49101;SDS011;34913;47.520;19.186;2023-11-19T13:50:49;13.93;;;9.38;;
49101;SDS011;34913;47.520;19.186;2023-11-19T13:53:15;13.40;;;9.35;;
49101;SDS011;34913;47.520;19.186;2023-11-19T13:55:41;15.77;;;8.88;;
49101;SDS011;34913;47.520;19.186;2023-11-19T13:58:07;14.63;;;9.27;;
49101;SDS011;34913;47.520;19.186;2023-11-19T14:00:33;14.45;;;8.60;;
49101;SDS011;34913;47.520;19.186;2023-11-19T14:02:58;14.57;;;9.25;;
49101;SDS011;34913;47.520;19.186;2023-11-19T14:05:24;16.45;;;9.18;;
49101;SDS011;34913;47.520;19.186;2023-11-19T14:07:50;12.98;;;8.40;;
49101;SDS011;34913;47.520;19.186;2023-11-19T14:10:16;14.10;;;9.43;;
49101;SDS011;34913;47.520;19.186;2023-11-19T14:12:42;48.92;;;18.13;;
49101;SDS011;34913;47.520;19.186;2023-11-19T14:15:08;39.88;;;16.98;;
49101;SDS011;34913;47.520;19.186;2023-11-19T14:17:35;36.22;;;16.20;;
49101;SDS011;34913;47.520;19.186;2023-11-19T14:20:04;23.63;;;12.77;;
49101;SDS011;34913;47.520;19.186;2023-11-19T14:22:40;41.05;;;22.85;;
49101;SDS011;34913;47.520;19.186;2023-11-19T14:25:08;55.20;;;28.80;;
49101;SDS011;34913;47.520;19.186;2023-11-19T14:27:40;36.15;;;21.73;;
49101;SDS011;34913;47.520;19.186;2023-11-19T14:30:07;21.02;;;12.88;;
49101;SDS011;34913;47.520;19.186;2023-11-19T14:32:36;16.75;;;10.70;;
49101;SDS011;34913;47.520;19.186;2023-11-19T14:35:02;15.18;;;10.00;;